Latest Weather Observations for Cunderdin Airport

IDW60801

Issued at 10:05 am WST Wednesday 24 September 2014 (issued every 30 minutes, with the page automatically refreshed every 10 minutes)

About weather observations | Map of weather stations | Latest weather observations for WA | Other Formats
Station Details ID: 010286 Name: CUNDERDIN AIRFIELD Lat: -31.62 Lon: 117.22 Height: 216.7 m
Data from the previous 72 hours. | See also: Recent months at Cunderdin Airport
Date/Time
WST
Temp
°C
App
Temp
°C
Dew
Point
Rel
Hum
%
Delta-T
°C
Wind Press
QNH
hPa
Press
MSL
hPa
Rain
since 9 am
mm
Dir
 
Spd
km/h
Gust
km/h
Spd
kts
Gust
kts
24/10:00am 17.8 15.6 9.4 58 4.4 ENE 11 15 6 8 1025.8 1025.8 0.0
24/09:30am 16.3 15.0 9.9 66 3.4 E 7 13 4 7 1026.3 1026.3 0.0
24/09:00am 14.9 13.3 10.3 74 2.4 ENE 9 13 5 7 1026.3 1026.3 0.0
24/08:30am 12.6 11.3 10.0 84 1.3 E 7 13 4 7 1026.3 1026.3 0.0
24/08:00am 10.9 9.9 10.3 96 0.3 E 6 9 3 5 1026.3 1026.3 0.0
24/07:30am 9.0 7.5 8.5 97 0.2 E 6 9 3 5 1026.1 1026.1 0.0
24/07:00am 7.8 7.2 7.4 97 0.2 CALM 0 0 0 0 1026.0 1026.0 0.0
24/06:30am 5.8 4.7 5.2 96 0.3 CALM 0 0 0 0 1025.8 1025.8 0.0
24/06:00am 3.9 2.4 3.2 95 0.3 ENE 0 0 0 0 1025.6 1025.6 0.0
24/05:30am 4.1 2.7 3.4 95 0.3 CALM 0 0 0 0 1025.5 1025.5 0.0
24/05:00am 4.3 2.9 3.6 95 0.3 CALM 0 0 0 0 1025.3 1025.3 0.0
24/04:30am 4.5 2.8 3.8 95 0.3 N 2 6 1 3 1025.2 1025.2 0.0
24/04:00am 4.2 1.7 3.5 95 0.3 N 6 6 3 3 1025.3 1025.3 0.0
24/03:30am 5.6 4.5 4.9 95 0.3 CALM 0 0 0 0 1025.6 1025.6 0.0
24/03:00am 5.9 4.8 5.2 95 0.3 CALM 0 0 0 0 1025.7 1025.7 0.0
24/02:30am 5.7 3.8 5.0 95 0.3 N 4 6 2 3 1025.8 1025.8 0.0
24/02:00am 5.8 4.7 5.1 95 0.3 CALM 0 0 0 0 1026.0 1026.0 0.0
24/01:30am 5.5 3.2 4.6 94 0.4 N 6 7 3 4 1026.1 1026.1 0.0
24/01:00am 5.6 3.1 4.7 94 0.4 N 7 7 4 4 1026.4 1026.4 0.0
24/12:30am 5.7 3.4 4.8 94 0.4 NNE 6 7 3 4 1026.7 1026.7 0.0
24/12:00am 5.9 3.6 4.9 93 0.4 NNE 6 7 3 4 1026.8 1026.8 0.0
 
Date/Time
WST
Temp
°C
App
Temp
°C
Dew
Point
Rel
Hum
%
Delta-T
°C
Wind Press
QNH
hPa
Press
MSL
hPa
Rain
since 9 am
mm
Dir
 
Spd
km/h
Gust
km/h
Spd
kts
Gust
kts
23/11:30pm 7.1 5.0 6.0 93 0.5 NNE 6 7 3 4 1026.8 1026.8 0.0
23/11:00pm 7.1 6.2 5.9 92 0.5 CALM 0 0 0 0 1026.8 1026.8 0.0
23/10:30pm 8.0 7.2 6.6 91 0.7 CALM 0 0 0 0 1026.6 1026.6 0.0
23/10:00pm 8.5 7.0 7.0 90 0.7 ENE 4 7 2 4 1026.3 1026.3 0.0
23/09:30pm 8.9 6.8 6.5 85 1.1 E 7 11 4 6 1026.3 1026.3 0.0
23/09:00pm 10.8 9.0 7.9 82 1.4 SSE 7 9 4 5 1026.6 1026.6 0.0
23/08:30pm 11.1 9.6 8.3 83 1.4 SSE 6 7 3 4 1026.6 1026.6 0.0
23/08:00pm 11.1 9.7 8.7 85 1.2 S 6 7 3 4 1026.2 1026.2 0.0
23/07:30pm 11.2 9.2 8.6 84 1.3 S 9 9 5 5 1026.0 1026.0 0.0
23/07:00pm 11.6 9.6 8.8 83 1.4 S 9 11 5 6 1025.6 1025.6 0.0
23/06:30pm 12.4 10.0 8.7 78 1.9 S 11 13 6 7 1025.5 1025.5 0.0
23/06:00pm 14.1 11.6 8.3 68 2.9 SSW 11 13 6 7 1025.3 1025.3 0.0
23/05:30pm 15.8 13.2 7.6 58 4.1 SSW 11 13 6 7 1025.2 1025.2 0.0
23/05:00pm 16.8 13.7 7.4 54 4.7 SSW 13 17 7 9 1024.9 1024.9 0.0
23/04:30pm 17.4 15.0 7.2 51 5.2 S 9 13 5 7 1024.8 1024.8 0.0
23/04:00pm 17.8 15.4 7.2 50 5.3 SW 9 17 5 9 1024.7 1024.7 0.0
23/03:30pm 17.9 15.1 7.0 49 5.5 SW 11 19 6 10 1024.6 1024.6 0.0
23/03:00pm 18.5 17.1 7.3 48 5.7 SW 4 13 2 7 1024.7 1024.7 0.0
23/02:30pm 17.8 15.3 6.7 48 5.6 S 9 20 5 11 1024.8 1024.8 0.0
23/02:00pm 17.7 14.1 6.9 49 5.4 SSW 15 24 8 13 1025.1 1025.1 0.0
23/01:30pm 17.1 14.5 6.3 49 5.4 WSW 9 19 5 10 1025.2 1025.2 0.0
23/01:00pm 17.4 15.0 6.9 50 5.3 SW 9 19 5 10 1025.3 1025.3 0.0
23/12:30pm 17.6 15.9 7.4 51 5.2 E 6 15 3 8 1025.6 1025.6 0.0
23/12:00pm 17.1 15.2 6.9 51 5.1 S 6 15 3 8 1026.1 1026.1 0.0
23/11:30am 15.6 12.7 6.3 54 4.6 ESE 11 20 6 11 1026.6 1026.6 0.0
23/11:00am 15.6 12.4 6.9 56 4.3 SSE 13 22 7 12 1026.9 1026.9 0.0
23/10:30am 15.9 13.1 6.9 55 4.5 SSE 11 20 6 11 1027.2 1027.2 0.0
23/10:00am 14.3 11.8 6.4 59 3.8 SE 9 15 5 8 1027.4 1027.4 0.0
23/09:30am 13.9 11.0 6.7 62 3.5 SSE 11 20 6 11 1027.6 1027.6 0.0
23/09:00am 12.2 9.8 7.1 71 2.5 SSE 9 13 5 7 1027.9 1027.9 0.0
23/08:30am 10.3 9.7 7.5 83 1.4 CALM 0 0 0 0 1027.8 1027.8 0.0
23/08:00am 8.7 8.2 7.8 94 0.4 CALM 0 6 0 3 1027.7 1027.7 0.0
23/07:30am 7.0 6.2 6.4 96 0.3 CALM 0 0 0 0 1027.5 1027.5 0.0
23/07:00am 5.8 3.9 5.1 95 0.3 WNW 4 6 2 3 1027.1 1027.1 0.0
23/06:30am 4.3 1.6 3.6 95 0.3 W 7 9 4 5 1026.8 1026.8 0.0
23/06:00am 3.3 0.4 2.4 94 0.4 W 7 9 4 5 1026.5 1026.5 0.0
23/05:30am 2.5 -0.4 1.6 94 0.4 NNW 6 7 3 4 1026.1 1026.1 0.0
23/05:00am 3.5 1.9 2.6 94 0.4 CALM 0 6 0 3 1025.8 1025.8 0.0
23/04:30am 3.8 2.3 2.8 93 0.4 CALM 0 0 0 0 1025.6 1025.6 0.0
23/04:00am 3.9 1.0 2.7 92 0.5 N 7 7 4 4 1025.4 1025.4 0.0
23/03:30am 5.1 3.4 3.9 92 0.5 N 2 6 1 3 1025.3 1025.3 0.0
23/03:00am 4.8 2.1 3.5 91 0.5 NW 7 9 4 5 1025.4 1025.4 0.0
23/02:30am 5.6 3.2 4.2 91 0.6 NW 6 7 3 4 1025.3 1025.3 0.0
23/02:00am 5.9 3.5 4.4 90 0.6 SSW 6 7 3 4 1025.3 1025.3 0.0
23/01:30am 6.5 2.9 4.8 89 0.7 SSW 13 13 7 7 1025.4 1025.4 0.0
23/01:00am 7.8 4.5 6.3 90 0.7 S 13 17 7 9 1025.4 1025.4 0.0
23/12:30am 6.9 3.4 5.5 91 0.6 S 13 15 7 8 1025.6 1025.6 0.0
23/12:00am 6.6 4.4 5.2 91 0.6 WSW 6 7 3 4 1025.8 1025.8 0.0
 
Date/Time
WST
Temp
°C
App
Temp
°C
Dew
Point
Rel
Hum
%
Delta-T
°C
Wind Press
QNH
hPa
Press
MSL
hPa
Rain
since 9 am
mm
Dir
 
Spd
km/h
Gust
km/h
Spd
kts
Gust
kts
22/11:30pm 7.3 4.7 6.1 92 0.5 SSW 9 11 5 6 1025.7 1025.7 0.0
22/11:00pm 6.8 5.0 5.4 91 0.6 W 4 7 2 4 1025.6 1025.6 0.0
22/10:30pm 7.8 5.8 6.3 90 0.7 SW 6 7 3 4 1025.7 1025.7 0.0
22/10:00pm 8.3 5.8 6.6 89 0.8 SSW 9 9 5 5 1025.8 1025.8 0.0
22/09:30pm 9.0 6.7 7.3 89 0.8 S 9 13 5 7 1025.7 1025.7 0.0
22/09:00pm 8.1 5.2 6.4 89 0.8 SSW 11 13 6 7 1025.5 1025.5 0.0
22/08:30pm 8.5 5.6 6.6 88 0.9 SSW 11 13 6 7 1025.0 1025.0 0.0
22/08:00pm 9.2 6.8 7.2 87 0.9 S 9 9 5 5 1024.9 1024.9 0.0
22/07:30pm 9.5 7.1 7.1 85 1.1 S 9 9 5 5 1024.4 1024.4 0.0
22/07:00pm 10.2 7.4 7.1 81 1.5 S 11 13 6 7 1023.8 1023.8 0.0
22/06:30pm 11.4 8.5 6.5 72 2.3 S 11 15 6 8 1023.4 1023.4 0.0
22/06:00pm 13.0 8.9 6.1 63 3.3 S 17 20 9 11 1022.9 1022.9 0.0
22/05:30pm 14.6 10.1 5.9 56 4.2 S 19 26 10 14 1022.4 1022.4 0.0
22/05:00pm 15.7 10.6 5.9 52 4.8 SSW 22 30 12 16 1022.0 1022.0 0.0
22/04:30pm 16.3 10.9 4.4 45 5.6 SSW 22 33 12 18 1021.5 1021.5 0.0
22/04:00pm 16.5 11.2 6.6 52 4.9 SSW 24 37 13 20 1021.5 1021.5 0.0
22/03:30pm 16.8 11.5 5.1 46 5.6 SSW 22 33 12 18 1021.0 1021.0 0.0
22/03:00pm 17.4 12.5 5.0 44 6.0 SSW 20 30 11 16 1020.8 1020.8 0.0
22/02:30pm 17.2 11.7 5.8 47 5.6 S 24 32 13 17 1020.8 1020.8 0.0
22/02:00pm 16.8 11.1 6.9 52 4.9 S 26 33 14 18 1020.8 1020.8 0.0
22/01:30pm 18.1 13.7 7.5 50 5.4 SW 20 30 11 16 1020.7 1020.7 0.0
22/01:00pm 15.7 10.1 5.6 51 4.9 SSW 24 33 13 18 1020.9 1020.9 0.0
22/12:30pm 16.9 11.3 5.5 47 5.6 SSW 24 37 13 20 1020.9 1020.9 0.0
22/12:00pm 15.2 9.7 5.7 53 4.6 SW 24 35 13 19 1021.0 1021.0 0.0
22/11:30am 15.7 10.6 5.9 52 4.8 S 22 32 12 17 1021.0 1021.0 0.0
22/11:00am 15.9 11.2 7.7 58 4.1 SSW 22 35 12 19 1021.1 1021.1 0.0
22/10:30am 15.1 10.1 8.1 63 3.6 SSW 24 32 13 17 1021.4 1021.4 0.0
22/10:00am 13.7 8.9 7.5 66 3.1 SSW 22 32 12 17 1021.5 1021.5 0.0
22/09:30am 13.0 8.0 7.9 71 2.5 SSW 24 32 13 17 1021.6 1021.6 0.0
22/09:00am 12.7 7.3 8.0 73 2.3 SW 26 35 14 19 1021.4 1021.4 12.0
22/08:30am 11.9 7.7 8.2 78 1.8 SSW 20 35 11 19 1020.9 1020.9 12.0
22/08:00am 10.8 6.6 8.4 85 1.2 SSW 20 24 11 13 1020.7 1020.7 12.0
22/07:30am 9.9 7.1 8.5 91 0.7 WSW 13 20 7 11 1020.1 1020.0 12.0
22/07:00am 8.8 7.0 7.9 94 0.4 W 7 11 4 6 1019.6 1019.5 12.0
22/06:30am 7.8 5.3 6.7 93 0.5 WSW 9 13 5 7 1019.1 1019.1 12.0
22/06:00am 8.2 5.1 7.1 93 0.5 WSW 13 17 7 9 1018.7 1018.7 12.0
22/05:30am 8.5 5.0 7.3 92 0.6 SW 15 20 8 11 1018.0 1018.0 12.0
22/05:00am 9.0 5.3 7.9 93 0.5 SW 17 24 9 13 1017.5 1017.5 12.0
22/04:30am 9.3 5.7 8.2 93 0.5 WSW 17 24 9 13 1016.8 1016.8 12.0
22/04:00am 9.5 5.9 8.4 93 0.5 SW 17 26 9 14 1015.9 1015.8 12.0
22/03:30am 9.4 5.2 8.2 92 0.6 SW 20 28 11 15 1015.3 1015.2 12.0
22/03:00am 9.6 5.4 8.4 92 0.6 SW 20 30 11 16 1015.0 1014.9 12.0
22/02:30am 9.6 5.1 8.4 92 0.6 SSW 22 30 12 16 1014.3 1014.3 12.0
22/02:00am 10.0 4.8 8.9 93 0.5 SSW 26 35 14 19 1014.0 1014.0 12.0
22/01:30am 10.2 5.8 9.1 93 0.6 SSW 22 32 12 17 1013.7 1013.7 11.8
22/01:00am 10.2 5.0 9.0 92 0.6 S 26 37 14 20 1012.9 1012.9 11.2
22/12:30am 10.3 5.6 9.1 92 0.6 S 24 39 13 21 1012.8 1012.8 10.6
22/12:00am 10.3 5.1 8.9 91 0.7 S 26 35 14 19 1013.0 1013.0 10.2
 
Date/Time
WST
Temp
°C
App
Temp
°C
Dew
Point
Rel
Hum
%
Delta-T
°C
Wind Press
QNH
hPa
Press
MSL
hPa
Rain
since 9 am
mm
Dir
 
Spd
km/h
Gust
km/h
Spd
kts
Gust
kts
21/11:30pm 10.6 5.2 9.5 93 0.6 S 28 35 15 19 1012.7 1012.7 10.0
21/11:11pm 10.8 5.1 9.7 93 0.6 S 30 48 16 26 1012.6 1012.6 9.4
21/11:07pm 10.5 5.1 9.4 93 0.6 S 28 43 15 23 1012.6 1012.6 9.2
21/11:00pm 11.5 9.6 10.4 93 0.6 SW 11 20 6 11 1012.4 1012.3 7.6
21/10:30pm 11.5 11.7 10.4 93 0.6 CALM 0 0 0 0 1012.1 1012.0 7.2
21/10:00pm 11.4 11.2 10.3 93 0.6 NNW 2 7 1 4 1011.7 1011.6 7.2
21/09:30pm 11.4 9.8 10.3 93 0.6 N 9 11 5 6 1011.3 1011.2 7.2
21/09:00pm 11.4 9.8 10.3 93 0.6 N 9 13 5 7 1011.4 1011.3 7.0
21/08:30pm 11.5 10.3 10.4 93 0.6 N 7 11 4 6 1011.5 1011.4 7.0
21/08:00pm 11.7 9.8 10.6 93 0.6 N 11 15 6 8 1012.3 1012.2 7.0
21/07:30pm 11.9 10.5 10.8 93 0.6 N 9 13 5 7 1011.7 1011.6 7.0
21/07:00pm 11.9 10.5 10.8 93 0.6 N 9 15 5 8 1011.1 1011.0 7.0
21/06:30pm 12.0 9.5 10.9 93 0.6 NNW 15 20 8 11 1010.6 1010.5 7.0
21/06:00pm 12.3 10.3 11.4 94 0.5 N 13 19 7 10 1009.9 1009.8 6.8
21/05:30pm 12.6 11.1 11.8 95 0.4 NNW 11 15 6 8 1010.1 1010.0 6.6
21/05:00pm 12.8 11.3 12.0 95 0.4 N 11 15 6 8 1009.4 1009.4 6.6
21/04:30pm 12.7 9.5 11.8 94 0.5 W 20 28 11 15 1010.4 1010.3 6.2
21/04:00pm 12.8 9.2 11.9 94 0.5 W 22 30 12 16 1009.9 1009.8 5.4
21/03:30pm 12.8 7.1 11.9 94 0.5 W 33 50 18 27 1009.4 1009.4 4.2
21/03:21pm 12.8 7.3 12.0 95 0.4 W 32 50 17 27 1009.7 1009.6 3.8
21/03:00pm 13.4 9.7 12.6 95 0.4 W 24 33 13 18 1008.8 1008.8 2.2
21/02:30pm 13.4 8.0 12.3 93 0.6 W 32 41 17 22 1008.4 1008.3 1.2
21/02:00pm 14.3 6.6 12.0 86 1.3 WSW 44 63 24 34 1007.2 1007.1 0.0
21/01:47pm 15.9 8.5 12.6 81 1.8 W 43 61 23 33 1006.8 1006.7 0.0
21/01:30pm 16.9 8.9 12.4 75 2.5 W 46 59 25 32 1006.3 1006.2 0.0
21/01:00pm 20.6 12.2 13.6 64 4.1 W 50 70 27 38 1005.2 1005.1 0.0
21/12:46pm 20.0 10.6 12.7 63 4.2 W 54 72 29 39 1005.3 1005.2 0.0
21/12:43pm 22.0 12.3 11.7 52 5.8 WNW 54 69 29 37 1004.9 1004.8 0.0
21/12:30pm 26.4 16.3 7.4 30 10.2 N 50 80 27 43 1003.8 1003.7 0.0
21/12:00pm 27.0 15.2 7.5 29 10.6 N 59 78 32 42 1004.0 1003.9 0.0
21/11:30am 27.2 16.8 7.6 29 10.6 N 52 76 28 41 1004.9 1004.8 0.0
21/11:01am 26.8 16.4 6.2 27 10.8 N 50 72 27 39 1005.3 1005.2 0.0
21/11:00am 26.6 16.6 6.1 27 10.8 N 48 65 26 35 1005.2 1005.1 0.0
21/10:30am 26.6 16.8 5.5 26 11.0 N 46 67 25 36 1005.9 1005.8 0.0

Other Formats:

Comma delimited format used in spreadsheet applications
http://www.bom.gov.au/fwo/IDW60801/IDW60801.95625.axf

JavaScript Object Notation format (JSON) in row-major order
http://www.bom.gov.au/fwo/IDW60801/IDW60801.95625.json